Time;durP1;ratioP1;P1;durP2;ratioP2;P2;SDS_P1;SDS_P2;PMS_P1;PMS_P2;Temp;Humidity;BMP_temperature;BMP_pressure;BME280_temperature;BME280_humidity;BME280_pressure;Samples;Min_cycle;Max_cycle;Signal;HPM_P1;HPM_P2
2021/03/17 00:00:11;;;;;;;36.17;5.28;;;;;;;11.04;66.15;102321.97;5032858;28;20053;-83
2021/03/17 00:02:37;;;;;;;29.83;5.43;;;;;;;11.04;65.73;102318.50;5033019;28;20089;-83
2021/03/17 00:05:04;;;;;;;23.15;4.63;;;;;;;11.11;65.28;102315.53;5032857;28;20480;-83
2021/03/17 00:07:30;;;;;;;24.98;4.88;;;;;;;11.02;65.73;102326.44;5032788;28;20083;-83
2021/03/17 00:09:55;;;;;;;22.05;5.07;;;;;;;11.07;65.52;102332.34;5032719;28;20025;-83
2021/03/17 00:12:20;;;;;;;32.13;4.93;;;;;;;10.89;66.00;102340.97;5032957;28;20487;-83
2021/03/17 00:14:46;;;;;;;31.40;5.32;;;;;;;11.02;64.80;102347.47;5032686;28;20468;-82
2021/03/17 00:17:11;;;;;;;26.85;5.22;;;;;;;11.10;64.83;102355.06;5048355;28;20037;-82
2021/03/17 00:19:36;;;;;;;23.13;4.65;;;;;;;10.95;64.51;102360.91;5032806;28;20025;-82
2021/03/17 00:22:02;;;;;;;30.60;4.45;;;;;;;10.59;66.57;102366.63;5032586;28;20521;-82
2021/03/17 00:24:27;;;;;;;22.85;5.07;;;;;;;10.61;66.58;102351.66;5032687;28;20434;-82
2021/03/17 00:26:52;;;;;;;32.75;5.50;;;;;;;10.49;67.25;102359.06;5032377;28;20105;-83
2021/03/17 00:29:19;;;;;;;32.60;5.13;;;;;;;10.48;67.68;102359.13;5032563;28;20059;-82
2021/03/17 00:31:44;;;;;;;27.65;4.95;;;;;;;10.57;67.17;102356.16;5032390;28;20070;-82
2021/03/17 00:34:09;;;;;;;34.33;4.88;;;;;;;10.24;68.31;102359.06;5032217;28;20116;-83
2021/03/17 00:36:35;;;;;;;28.05;5.63;;;;;;;10.06;69.42;102362.34;5032199;28;20274;-82
2021/03/17 00:39:00;;;;;;;27.20;4.65;;;;;;;10.48;68.27;102356.50;5032283;28;20032;-82
2021/03/17 00:41:25;;;;;;;21.17;4.32;;;;;;;10.56;67.00;102350.97;5032206;28;20061;-82
2021/03/17 00:43:51;;;;;;;35.63;6.72;;;;;;;10.47;67.60;102360.03;5032072;28;20041;-82
2021/03/17 00:46:16;;;;;;;30.05;5.50;;;;;;;10.29;68.75;102359.75;5032239;28;20032;-83
2021/03/17 00:48:41;;;;;;;34.63;7.13;;;;;;;10.24;69.40;102363.47;5032068;28;20028;-82
2021/03/17 00:51:07;;;;;;;26.48;4.85;;;;;;;10.00;69.82;102367.78;5032085;28;20068;-82
2021/03/17 00:53:32;;;;;;;22.45;4.47;;;;;;;10.13;69.20;102371.72;5047428;28;20053;-83
2021/03/17 00:55:57;;;;;;;26.50;4.97;;;;;;;10.15;69.33;102374.25;5032061;28;20025;-83
2021/03/17 00:58:23;;;;;;;35.28;4.93;;;;;;;10.07;69.90;102371.91;5031970;28;20091;-83
2021/03/17 01:00:48;;;;;;;25.38;4.60;;;;;;;9.94;70.70;102376.72;5032350;28;20041;-82
2021/03/17 01:03:14;;;;;;;26.23;5.20;;;;;;;10.21;69.27;102384.56;5031968;28;20025;-82
2021/03/17 01:05:39;;;;;;;27.73;4.72;;;;;;;10.24;69.61;102382.69;5031703;28;20123;-82
2021/03/17 01:08:05;;;;;;;31.48;5.55;;;;;;;9.99;69.69;102384.44;5031924;28;20022;-82
2021/03/17 01:10:40;;;;;;;31.40;6.43;;;;;;;10.27;69.13;102384.38;5031931;28;20052;-82
2021/03/17 01:13:06;;;;;;;30.83;6.10;;;;;;;9.68;71.43;102383.69;5031969;28;20083;-83
2021/03/17 01:15:32;;;;;;;25.67;4.88;;;;;;;10.01;71.18;102380.00;5031896;28;20434;-82
2021/03/17 01:17:58;;;;;;;21.02;4.80;;;;;;;10.12;69.93;102383.13;5047467;28;20052;-82
2021/03/17 01:20:25;;;;;;;30.20;6.30;;;;;;;10.08;70.12;102379.72;5031790;28;20471;-82
2021/03/17 01:22:52;;;;;;;30.77;5.82;;;;;;;9.93;70.41;102386.38;5031929;28;20022;-82
2021/03/17 01:25:26;;;;;;;24.92;5.03;;;;;;;10.14;69.94;102381.28;5031899;28;20037;-83
2021/03/17 01:27:51;;;;;;;29.70;5.45;;;;;;;9.93;70.29;102381.13;5031850;28;20028;-83
2021/03/17 01:30:18;;;;;;;28.02;4.75;;;;;;;9.90;70.97;102385.63;5031931;28;20029;-83
2021/03/17 01:32:43;;;;;;;26.73;4.15;;;;;;;9.92;71.04;102376.78;5031925;28;20497;-83
2021/03/17 01:35:13;;;;;;;32.08;5.40;;;;;;;10.00;70.87;102381.75;5031729;28;20116;-83
2021/03/17 01:37:39;;;;;;;29.65;5.03;;;;;;;9.81;71.24;102399.03;5031830;28;20473;-83
2021/03/17 01:40:05;;;;;;;36.33;4.55;;;;;;;9.86;71.10;102410.25;5031556;28;20022;-82
2021/03/17 01:42:31;;;;;;;27.25;5.20;;;;;;;9.87;70.48;102399.69;5030392;28;20038;-82
2021/03/17 01:44:56;;;;;;;30.08;5.10;;;;;;;9.68;71.17;102391.56;5031620;28;20128;-83
2021/03/17 01:47:22;;;;;;;41.47;5.70;;;;;;;9.58;72.22;102403.25;5031553;28;20025;-83
2021/03/17 01:49:47;;;;;;;27.67;4.45;;;;;;;9.69;71.58;102408.16;5031456;28;20033;-83
2021/03/17 01:52:12;;;;;;;29.90;4.80;;;;;;;9.64;71.69;102405.69;5031580;28;20034;-82
2021/03/17 01:54:38;;;;;;;23.63;4.65;;;;;;;9.68;71.31;102404.69;5031442;28;20033;-83
2021/03/17 01:57:04;;;;;;;26.10;4.63;;;;;;;9.51;72.54;102402.59;5031590;28;20179;-83
2021/03/17 01:59:31;;;;;;;42.20;5.45;;;;;;;9.43;72.66;102401.97;5031479;28;20036;-83
2021/03/17 02:01:58;;;;;;;42.20;5.82;;;;;;;9.41;73.01;102414.28;5046762;28;20116;-82
2021/03/17 02:04:23;;;;;;;25.83;4.68;;;;;;;9.54;72.56;102409.53;5031479;28;20069;-82
2021/03/17 02:06:51;;;;;;;31.15;5.53;;;;;;;9.54;71.94;102412.13;5031160;28;20529;-83
2021/03/17 02:09:17;;;;;;;28.55;4.78;;;;;;;9.51;71.88;102410.44;5031338;28;20021;-82
2021/03/17 02:11:48;;;;;;;23.45;4.45;;;;;;;9.42;71.99;102405.50;5031316;28;20033;-82
2021/03/17 02:14:35;;;;;;;;;;;;;;;9.86;71.21;102413.72;5031650;28;20392;-82
2021/03/17 02:17:16;;;;;;;31.92;4.43;;;;;;;9.79;71.11;102414.81;5031707;28;19917;-82
2021/03/17 02:20:02;;;;;;;25.73;4.65;;;;;;;9.77;71.16;102410.53;5034812;28;20128;-82
2021/03/17 02:22:36;;;;;;;35.05;5.35;;;;;;;9.76;70.86;102409.69;5034914;28;20102;-82
2021/03/17 02:25:11;;;;;;;22.52;3.92;;;;;;;9.44;71.30;102416.81;5035049;28;20025;-82
2021/03/17 02:28:08;;;;;;;23.85;3.90;;;;;;;9.62;71.06;102419.78;5034542;28;20022;-82
2021/03/17 02:31:08;;;;;;;30.70;4.78;;;;;;;9.68;70.64;102412.56;5034741;28;20021;-83
2021/03/17 02:33:47;;;;;;;29.40;4.20;;;;;;;9.22;72.16;102413.09;5034897;28;20041;-83
2021/03/17 02:36:22;;;;;;;29.67;5.72;;;;;;;8.85;75.49;102401.13;5035071;28;20033;-82
2021/03/17 02:38:55;;;;;;;35.80;4.97;;;;;;;8.96;73.79;102396.41;5034643;28;20021;-83
2021/03/17 02:41:31;;;;;;;31.23;4.90;;;;;;;9.06;73.79;102390.00;5034395;28;20152;-82
2021/03/17 02:44:00;;;;;;;23.52;3.78;;;;;;;9.27;72.43;102382.38;5034575;28;20041;-82
2021/03/17 02:46:28;;;;;;;29.55;5.63;;;;;;;9.35;72.13;102380.38;5033029;28;20022;-82
2021/03/17 02:49:01;;;;;;;24.40;5.07;;;;;;;9.49;71.55;102385.19;5034477;28;20080;-83
2021/03/17 02:51:32;;;;;;;27.25;6.72;;;;;;;9.49;71.60;102387.81;5034253;28;20472;-82
2021/03/17 02:54:00;;;;;;;23.10;4.13;;;;;;;9.40;71.88;102381.09;5034301;28;20052;-82
2021/03/17 02:56:29;;;;;;;25.20;4.35;;;;;;;9.43;71.72;102390.63;5034305;28;20080;-82
2021/03/17 02:58:55;;;;;;;26.63;4.47;;;;;;;9.40;71.83;102390.72;5034186;28;20361;-82
2021/03/17 03:01:22;;;;;;;22.23;4.60;;;;;;;9.39;72.79;102384.63;5033951;28;20017;-82
2021/03/17 03:03:50;;;;;;;27.08;4.68;;;;;;;9.35;72.33;102382.16;5033833;28;20061;-82
2021/03/17 03:06:18;;;;;;;39.72;5.63;;;;;;;9.43;72.74;102375.75;5034098;28;20032;-82
2021/03/17 03:08:44;;;;;;;34.58;6.10;;;;;;;9.04;74.60;102383.94;5033918;28;20032;-82
2021/03/17 03:11:13;;;;;;;31.83;5.07;;;;;;;8.82;76.75;102382.84;5034065;28;20109;-82
2021/03/17 03:13:39;;;;;;;33.22;4.93;;;;;;;9.07;75.29;102390.84;5034182;28;20036;-82
2021/03/17 03:16:06;;;;;;;34.55;4.97;;;;;;;9.12;74.85;102391.56;5033633;28;20076;-82
2021/03/17 03:18:34;;;;;;;29.17;5.03;;;;;;;9.37;73.54;102382.97;5034141;28;20029;-82
2021/03/17 03:21:00;;;;;;;25.40;5.78;;;;;;;9.17;74.64;102388.81;5033813;28;20112;-82
2021/03/17 03:23:27;;;;;;;32.65;4.97;;;;;;;9.31;73.86;102386.63;5033932;28;20026;-82
2021/03/17 03:25:53;;;;;;;32.72;4.68;;;;;;;9.24;73.28;102380.72;5033686;28;20060;-82
2021/03/17 03:28:20;;;;;;;28.83;4.47;;;;;;;9.03;75.00;102382.22;5033366;28;20061;-82
2021/03/17 03:30:52;;;;;;;22.75;4.63;;;;;;;8.95;75.74;102384.22;5033499;28;20496;-82
2021/03/17 03:33:18;;;;;;;25.25;5.43;;;;;;;9.10;75.39;102377.66;5033678;28;20056;-83
2021/03/17 03:35:46;;;;;;;38.13;5.22;;;;;;;9.13;75.78;102374.94;5033421;28;20033;-82
2021/03/17 03:38:12;;;;;;;20.52;4.50;;;;;;;9.31;74.68;102376.13;5048613;28;20032;-82
2021/03/17 03:40:40;;;;;;;43.30;5.90;;;;;;;8.92;76.76;102385.16;5033201;28;20025;-82
2021/03/17 03:43:06;;;;;;;34.17;5.05;;;;;;;9.33;75.07;102388.28;5033308;28;20022;-82
2021/03/17 03:45:32;;;;;;;29.70;6.10;;;;;;;9.25;75.64;102394.69;5033410;28;20040;-82
2021/03/17 03:47:58;;;;;;;29.45;3.97;;;;;;;9.26;75.04;102392.03;5033302;28;20535;-82
2021/03/17 03:50:25;;;;;;;35.67;5.35;;;;;;;9.13;75.66;102407.25;5033107;28;20025;-82
2021/03/17 03:53:00;;;;;;;39.75;6.10;;;;;;;9.30;75.39;102411.09;5033219;28;20088;-82
2021/03/17 03:55:33;;;;;;;40.10;5.38;;;;;;;9.49;74.52;102403.53;5032900;28;20034;-82
2021/03/17 03:58:02;;;;;;;32.17;5.85;;;;;;;9.23;75.60;102413.06;5033224;28;20566;-82
2021/03/17 04:00:32;;;;;;;32.05;4.75;;;;;;;9.42;75.03;102408.13;5032987;28;20025;-82
2021/03/17 04:03:00;;;;;;;29.08;6.43;;;;;;;9.52;74.20;102406.09;5032989;28;20052;-82
2021/03/17 04:05:32;;;;;;;23.25;4.25;;;;;;;9.59;73.72;102406.75;5032827;28;20019;-82
2021/03/17 04:08:04;;;;;;;38.30;6.30;;;;;;;9.21;75.04;102411.41;5032684;28;20022;-82
2021/03/17 04:10:30;;;;;;;33.80;5.80;;;;;;;9.09;76.25;102417.88;5032759;28;20018;-82
2021/03/17 04:12:56;;;;;;;36.05;5.45;;;;;;;9.24;75.36;102421.78;5032720;28;20036;-82
2021/03/17 04:15:23;;;;;;;27.67;4.75;;;;;;;9.25;75.18;102423.53;5047869;28;20133;-82
2021/03/17 04:17:54;;;;;;;27.58;4.35;;;;;;;9.33;74.46;102408.41;5056270;22;20415;-89
2021/03/17 04:20:34;;;;;;;30.58;5.55;;;;;;;9.01;76.81;102414.63;5067814;28;20497;-89
2021/03/17 04:23:01;;;;;;;33.05;5.65;;;;;;;9.21;74.79;102411.41;5051248;28;20116;-89
2021/03/17 04:25:31;;;;;;;32.70;4.70;;;;;;;9.26;74.52;102399.00;5052494;28;20597;-90
2021/03/17 04:27:57;;;;;;;33.03;5.40;;;;;;;9.24;74.16;102406.94;5052454;28;20039;-89
2021/03/17 04:30:26;;;;;;;27.98;4.15;;;;;;;9.21;74.25;102396.53;5052338;28;20501;-89
2021/03/17 04:32:54;;;;;;;27.40;5.00;;;;;;;9.24;74.12;102393.84;5052283;28;20036;-89
2021/03/17 04:35:20;;;;;;;36.55;5.05;;;;;;;9.25;73.97;102400.78;5050908;28;20029;-89
2021/03/17 04:37:48;;;;;;;21.52;4.18;;;;;;;9.27;72.77;102392.88;5052234;28;20056;-89
2021/03/17 04:40:15;;;;;;;27.45;4.57;;;;;;;9.23;73.57;102389.47;5051682;28;20032;-90
2021/03/17 04:42:43;;;;;;;31.17;5.32;;;;;;;9.25;73.57;102399.94;5052351;28;20032;-89
2021/03/17 04:45:11;;;;;;;24.02;4.78;;;;;;;9.28;73.00;102397.19;5052135;28;20104;-90
2021/03/17 04:47:41;;;;;;;21.88;4.03;;;;;;;9.35;72.36;102393.50;5052006;28;20021;-89
2021/03/17 04:50:07;;;;;;;26.23;4.68;;;;;;;9.19;72.62;102400.13;5052079;28;20435;-89
2021/03/17 04:52:35;;;;;;;27.83;3.95;;;;;;;9.17;72.25;102394.91;5052268;28;20033;-89
2021/03/17 04:55:01;;;;;;;22.77;4.10;;;;;;;8.97;72.70;102385.03;5050842;28;20039;-89
2021/03/17 04:57:29;;;;;;;16.58;3.33;;;;;;;8.96;73.11;102393.78;5051935;28;20373;-89
2021/03/17 04:59:56;;;;;;;32.85;4.90;;;;;;;8.95;73.57;102386.84;5051909;28;20075;-89
2021/03/17 05:02:26;;;;;;;41.17;6.20;;;;;;;9.01;72.71;102393.66;5067340;28;20413;-89
2021/03/17 05:04:53;;;;;;;20.70;4.18;;;;;;;8.85;73.45;102390.63;5067438;28;20025;-90
2021/03/17 05:07:20;;;;;;;27.10;5.20;;;;;;;8.87;72.62;102387.06;5050533;28;20542;-89
2021/03/17 05:09:47;;;;;;;25.65;5.15;;;;;;;8.80;71.70;102384.66;5050686;28;20033;-89
2021/03/17 05:12:15;;;;;;;18.75;4.15;;;;;;;8.79;73.21;102390.78;5051794;28;20471;-90
2021/03/17 05:14:41;;;;;;;27.95;4.95;;;;;;;8.46;72.19;102389.06;5050489;28;20078;-89
2021/03/17 05:17:08;;;;;;;22.70;4.30;;;;;;;8.40;72.58;102398.84;5052375;28;20037;-89
2021/03/17 05:19:36;;;;;;;29.35;4.70;;;;;;;8.19;72.23;102403.72;5050652;28;20025;-89
2021/03/17 05:22:02;;;;;;;24.92;5.25;;;;;;;8.04;73.13;102388.44;5051943;28;20029;-89
2021/03/17 05:24:28;;;;;;;22.00;4.97;;;;;;;8.05;73.59;102396.22;5050522;28;20430;-89
2021/03/17 05:26:55;;;;;;;39.90;4.80;;;;;;;8.04;73.17;102406.75;5050307;28;20372;-89
2021/03/17 05:29:22;;;;;;;27.08;4.97;;;;;;;7.77;75.14;102406.53;5051792;28;20032;-89
2021/03/17 05:31:50;;;;;;;34.42;5.20;;;;;;;7.66;75.75;102408.53;5051652;28;20491;-90
2021/03/17 05:34:15;;;;;;;16.60;3.50;;;;;;;7.91;74.82;102404.41;5051696;28;20040;-89
2021/03/17 05:36:41;;;;;;;23.63;3.83;;;;;;;7.93;74.18;102397.41;5060465;28;20025;-89
2021/03/17 05:39:07;;;;;;;25.70;3.72;;;;;;;7.99;74.85;102395.53;5051627;28;20028;-89
2021/03/17 05:41:35;;;;;;;18.42;3.63;;;;;;;8.06;73.64;102386.66;5051552;28;20028;-89
2021/03/17 05:44:02;;;;;;;15.82;3.45;;;;;;;8.02;73.01;102398.09;5051714;28;20059;-90
2021/03/17 05:46:28;;;;;;;20.83;3.17;;;;;;;7.99;73.05;102408.63;5051566;28;20562;-89
2021/03/17 05:48:57;;;;;;;25.55;3.85;;;;;;;7.88;73.96;102407.13;5050148;28;20123;-89
2021/03/17 05:51:25;;;;;;;18.38;3.40;;;;;;;7.88;73.39;102399.28;5051639;28;20029;-89
2021/03/17 05:53:51;;;;;;;23.95;3.75;;;;;;;7.93;74.21;102402.63;5058107;28;20029;-89
2021/03/17 05:56:17;;;;;;;21.35;4.85;;;;;;;8.01;73.33;102401.59;5073764;28;20092;-89
2021/03/17 05:58:43;;;;;;;23.10;3.72;;;;;;;8.08;73.24;102401.41;5070371;28;20025;-89
2021/03/17 06:01:11;;;;;;;26.00;3.95;;;;;;;8.13;74.15;102406.50;5054186;28;20554;-89
2021/03/17 06:03:37;;;;;;;19.38;3.80;;;;;;;7.95;73.93;102398.22;5055023;28;20479;-89
2021/03/17 06:06:06;;;;;;;24.45;4.03;;;;;;;8.02;74.08;102401.56;5055147;28;20028;-89
2021/03/17 06:08:39;;;;;;;19.92;3.70;;;;;;;7.94;74.84;102399.13;5053599;28;20037;-89
2021/03/17 06:11:10;;;;;;;24.17;3.88;;;;;;;8.13;74.26;102398.66;5053625;28;20378;-89
2021/03/17 06:13:40;;;;;;;21.88;3.88;;;;;;;8.07;74.38;102409.28;5053542;28;20031;-89
2021/03/17 06:16:08;;;;;;;23.00;3.63;;;;;;;7.91;75.50;102406.19;5054818;28;20033;-89
2021/03/17 06:18:41;;;;;;;20.13;4.28;;;;;;;7.86;75.23;102398.47;5053846;28;20560;-89
2021/03/17 06:21:06;;;;;;;14.10;2.65;;;;;;;7.78;75.04;102399.53;5053403;28;20028;-89
2021/03/17 06:23:32;;;;;;;30.02;4.35;;;;;;;7.59;76.18;102386.06;5054748;28;20146;-89
2021/03/17 06:25:58;;;;;;;32.85;4.93;;;;;;;7.56;76.20;102384.34;5054618;28;20025;-89
2021/03/17 06:28:25;;;;;;;24.02;3.88;;;;;;;7.55;76.50;102388.72;5053424;28;20025;-89
2021/03/17 06:30:56;;;;;;;29.17;4.95;;;;;;;7.83;75.78;102397.69;5070280;28;20044;-89
2021/03/17 06:33:21;;;;;;;30.00;4.18;;;;;;;7.66;76.67;102392.84;5054675;28;20025;-89
2021/03/17 06:35:47;;;;;;;24.35;3.92;;;;;;;7.74;75.81;102391.78;5053574;28;20509;-89
2021/03/17 06:38:22;;;;;;;24.75;3.85;;;;;;;8.02;75.64;102391.09;5053415;28;20025;-90
2021/03/17 06:40:58;;;;;;;24.58;4.13;;;;;;;8.07;75.69;102399.66;5054597;28;20032;-90
2021/03/17 06:43:36;;;;;;;25.33;4.40;;;;;;;8.20;74.16;102402.00;5054483;28;20158;-89
2021/03/17 06:46:02;;;;;;;21.40;3.03;;;;;;;8.17;74.84;102402.91;5053280;28;20025;-89
2021/03/17 06:48:29;;;;;;;17.85;3.72;;;;;;;8.33;74.71;102411.22;5053064;28;20535;-89
2021/03/17 06:51:13;;;;;;;20.27;4.18;;;;;;;8.68;73.27;102406.81;5053029;28;20024;-90
2021/03/17 06:53:49;;;;;;;20.17;3.92;;;;;;;8.76;73.34;102399.59;5054060;28;20025;-89
2021/03/17 06:56:15;;;;;;;30.85;3.80;;;;;;;8.65;73.45;102406.88;5054259;28;20066;-89
2021/03/17 06:58:43;;;;;;;32.03;5.38;;;;;;;8.51;73.93;102395.06;5056205;28;20103;-89
2021/03/17 07:01:37;;;;;;;24.15;3.65;;;;;;;8.86;74.61;102392.34;5052695;28;20029;-89
2021/03/17 07:04:16;;;;;;;22.10;3.40;;;;;;;9.13;73.09;102388.91;5052495;28;20063;-89
2021/03/17 07:06:43;;;;;;;23.83;4.13;;;;;;;9.22;72.60;102381.66;5049521;28;20028;-89
2021/03/17 07:09:18;;;;;;;20.25;4.00;;;;;;;9.46;71.75;102390.56;5053600;28;20037;-89
2021/03/17 07:11:48;;;;;;;20.80;3.53;;;;;;;9.45;72.31;102383.56;5047649;28;20025;-89
2021/03/17 07:14:22;;;;;;;23.20;4.05;;;;;;;9.52;72.76;102383.34;5053109;28;20524;-89
2021/03/17 07:16:47;;;;;;;23.15;3.92;;;;;;;9.67;71.67;102389.84;5065503;22;20028;-83
2021/03/17 07:19:32;;;;;;;16.27;3.17;;;;;;;9.82;71.07;102396.34;5032472;28;20078;-83
2021/03/17 07:22:07;;;;;;;22.15;4.07;;;;;;;9.91;71.92;102397.81;5030940;28;20387;-82
2021/03/17 07:24:34;;;;;;;22.88;4.30;;;;;;;9.83;71.75;102395.44;5032928;28;20045;-82
2021/03/17 07:27:12;;;;;;;23.80;4.82;;;;;;;9.85;71.53;102387.53;5033698;28;20057;-82
2021/03/17 07:29:38;;;;;;;21.70;4.35;;;;;;;9.83;71.88;102394.59;5019652;28;20097;-82
2021/03/17 07:32:03;;;;;;;20.23;4.25;;;;;;;9.88;71.36;102388.28;5027143;28;20040;-82
2021/03/17 07:34:29;;;;;;;23.98;4.55;;;;;;;9.90;70.78;102390.84;5028252;28;20060;-84
2021/03/17 07:36:57;;;;;;;25.42;5.03;;;;;;;9.99;70.76;102394.94;5032594;28;20420;-84
2021/03/17 07:39:29;;;;;;;15.55;3.50;;;;;;;10.11;71.44;102379.63;5019597;28;20021;-84
2021/03/17 07:41:56;;;;;;;18.67;3.65;;;;;;;10.05;71.74;102379.84;5032940;28;20036;-84
2021/03/17 07:44:23;;;;;;;24.50;3.72;;;;;;;10.14;71.14;102383.91;5032964;28;20034;-84
2021/03/17 07:46:57;;;;;;;21.25;4.07;;;;;;;10.11;70.55;102382.25;5022382;28;20048;-84
2021/03/17 07:49:24;;;;;;;18.88;3.75;;;;;;;9.78;71.78;102384.25;5034899;28;20025;-84
2021/03/17 07:51:52;;;;;;;22.40;3.83;;;;;;;9.84;72.94;102383.19;5038569;28;20017;-85
2021/03/17 07:54:23;;;;;;;21.05;4.35;;;;;;;10.03;72.02;102383.41;5037328;28;20156;-85
2021/03/17 07:56:50;;;;;;;28.70;4.00;;;;;;;9.92;72.07;102389.91;5033064;28;20521;-86
2021/03/17 07:59:18;;;;;;;21.13;3.83;;;;;;;10.18;71.77;102382.91;5030286;28;20419;-86
2021/03/17 08:01:45;;;;;;;21.13;4.53;;;;;;;10.18;71.89;102382.91;5013666;28;20034;-85
2021/03/17 08:04:11;;;;;;;28.95;5.82;;;;;;;10.36;70.95;102391.06;5022413;28;20033;-83
2021/03/17 08:06:37;;;;;;;14.82;3.47;;;;;;;10.44;70.68;102392.50;5032903;28;20502;-83
2021/03/17 08:09:03;;;;;;;17.77;3.80;;;;;;;10.68;70.00;102387.28;5015594;28;20108;-83
2021/03/17 08:11:29;;;;;;;25.30;4.30;;;;;;;10.89;69.13;102393.53;5015418;28;20049;-84
2021/03/17 08:13:56;;;;;;;19.30;3.28;;;;;;;10.94;69.23;102386.34;5016081;28;20061;-84
2021/03/17 08:16:25;;;;;;;19.48;4.57;;;;;;;11.09;68.57;102392.75;5025929;28;20459;-84
2021/03/17 08:18:51;;;;;;;19.20;3.30;;;;;;;11.31;68.36;102392.78;5068290;22;20045;-91
2021/03/17 08:21:54;;;;;;;20.33;3.70;;;;;;;11.44;65.77;102378.22;5059212;28;20052;-88
2021/03/17 08:24:38;;;;;;;29.55;4.72;;;;;;;11.80;65.41;102403.13;5042688;28;20040;-87
2021/03/17 08:27:07;;;;;;;22.35;4.55;;;;;;;12.07;62.83;102409.03;5074060;28;20073;-92
2021/03/17 08:29:41;;;;;;;27.50;4.57;;;;;;;12.16;63.59;102406.00;5070741;28;20021;-89
2021/03/17 08:32:08;;;;;;;25.67;4.75;;;;;;;12.28;61.25;102394.97;5056106;28;20033;-88
2021/03/17 08:34:35;;;;;;;27.75;4.40;;;;;;;12.31;60.67;102386.06;5056114;28;20098;-88
2021/03/17 08:37:03;;;;;;;25.05;4.35;;;;;;;12.72;59.87;102393.03;5057089;28;20041;-89
2021/03/17 08:39:32;;;;;;;16.00;4.47;;;;;;;13.07;59.98;102405.47;5069637;28;20037;-89
2021/03/17 08:42:01;;;;;;;26.13;4.63;;;;;;;13.10;59.31;102400.03;5056985;28;20030;-87
2021/03/17 08:44:29;;;;;;;19.15;3.70;;;;;;;13.42;58.46;102402.97;5057138;28;20033;-89
2021/03/17 08:46:57;;;;;;;24.00;4.07;;;;;;;13.42;57.31;102397.69;5059317;28;20025;-88
2021/03/17 08:49:29;;;;;;;29.95;4.78;;;;;;;13.27;57.69;102411.59;5052970;28;20022;-90
2021/03/17 08:51:55;;;;;;;20.60;3.55;;;;;;;12.95;58.13;102418.34;5055698;28;20021;-91
2021/03/17 08:54:29;;;;;;;19.52;4.18;;;;;;;13.14;57.42;102421.00;5057225;28;20029;-91
2021/03/17 08:56:56;;;;;;;15.52;3.72;;;;;;;13.13;57.06;102416.66;5049978;28;20017;-90
2021/03/17 08:59:21;;;;;;;14.18;2.97;;;;;;;13.25;56.87;102416.94;5057700;28;20067;-88
2021/03/17 09:01:47;;;;;;;12.75;3.15;;;;;;;13.49;55.99;102424.66;5052682;28;20220;-90
2021/03/17 09:04:48;;;;;;;23.13;4.13;;;;;;;13.42;55.64;102424.06;5034111;28;20544;-90
2021/03/17 09:07:14;;;;;;;20.88;3.80;;;;;;;13.17;54.96;102431.41;5028982;28;20223;-90
2021/03/17 09:09:53;;;;;;;20.38;3.78;;;;;;;12.89;56.59;102425.63;5022372;28;20635;-91
2021/03/17 09:12:25;;;;;;;14.52;2.90;;;;;;;12.88;56.68;102420.44;5023180;28;20010;-91
2021/03/17 09:14:51;;;;;;;15.82;3.15;;;;;;;12.55;56.49;102404.34;5032685;28;20022;-90
2021/03/17 09:17:22;;;;;;;22.33;4.22;;;;;;;12.56;57.15;102408.69;5031093;28;20033;-90
2021/03/17 09:19:59;;;;;;;16.38;3.55;;;;;;;12.79;57.05;102410.28;5016872;28;20064;-90
2021/03/17 09:22:44;;;;;;;24.15;3.85;;;;;;;12.98;55.08;102411.16;5030868;28;20042;-90
2021/03/17 09:25:22;;;;;;;21.95;3.42;;;;;;;13.57;53.60;102403.16;5030927;28;20018;-91
2021/03/17 09:27:49;;;;;;;16.05;2.95;;;;;;;14.03;51.27;102408.81;5029056;28;20425;-87
2021/03/17 09:30:16;;;;;;;15.35;3.38;;;;;;;14.37;52.00;102404.41;5017514;28;20030;-88
2021/03/17 09:32:42;;;;;;;18.08;3.85;;;;;;;14.95;51.19;102400.47;5021893;28;20423;-88
2021/03/17 09:35:08;;;;;;;15.05;3.47;;;;;;;15.49;49.31;102402.78;5031332;28;20068;-89
2021/03/17 09:37:33;;;;;;;12.57;3.08;;;;;;;15.86;47.38;102410.34;5060220;28;20071;-88
2021/03/17 09:39:59;;;;;;;20.00;3.78;;;;;;;16.03;47.49;102403.19;5067529;28;20110;-88
2021/03/17 09:42:24;;;;;;;16.67;2.92;;;;;;;16.15;46.57;102396.31;5053207;28;20036;-88
2021/03/17 09:44:57;;;;;;;21.35;3.55;;;;;;;16.33;45.59;102391.69;5034734;28;20092;-88
2021/03/17 09:47:28;;;;;;;19.20;3.55;;;;;;;15.68;47.42;102379.63;5052087;28;20044;-87
2021/03/17 09:49:54;;;;;;;14.82;3.70;;;;;;;15.73;46.68;102393.47;5039878;28;20040;-88
2021/03/17 09:52:20;;;;;;;19.27;4.13;;;;;;;15.47;46.48;102385.19;5032596;28;20030;-88
2021/03/17 09:54:45;;;;;;;17.85;3.53;;;;;;;15.81;47.29;102383.25;5018648;28;20034;-87
2021/03/17 09:57:11;;;;;;;15.13;3.45;;;;;;;16.00;46.46;102366.31;5048448;28;20031;-89
2021/03/17 09:59:38;;;;;;;19.17;3.92;;;;;;;15.64;47.04;102368.34;5070604;28;20506;-88
2021/03/17 10:02:10;;;;;;;18.10;4.47;;;;;;;16.54;46.28;102384.25;5026946;28;20017;-89
2021/03/17 10:04:42;;;;;;;18.48;4.97;;;;;;;16.77;46.75;102390.78;5022815;28;20099;-88
2021/03/17 10:07:08;;;;;;;22.33;4.72;;;;;;;16.77;46.02;102388.97;5031532;28;20029;-87
2021/03/17 10:09:35;;;;;;;20.17;3.33;;;;;;;16.31;44.94;102390.94;5029179;28;20124;-88
2021/03/17 10:12:02;;;;;;;14.63;3.47;;;;;;;16.39;44.47;102391.31;5016375;28;20018;-88
2021/03/17 10:14:28;;;;;;;17.60;4.10;;;;;;;15.96;44.91;102393.94;5015333;28;20061;-88
2021/03/17 10:16:55;;;;;;;14.38;3.40;;;;;;;16.88;43.35;102383.00;5022928;28;20061;-88
2021/03/17 10:19:21;;;;;;;16.63;3.17;;;;;;;16.59;43.31;102361.78;5023513;28;20027;-87
2021/03/17 10:21:48;;;;;;;17.38;3.63;;;;;;;16.14;42.92;102368.13;5061345;28;20112;-88
2021/03/17 10:24:13;;;;;;;14.85;3.80;;;;;;;16.96;42.34;102363.94;5027970;28;20084;-88
2021/03/17 10:26:40;;;;;;;11.93;2.72;;;;;;;17.41;40.71;102354.78;5018874;28;20022;-88
2021/03/17 10:29:06;;;;;;;20.60;3.08;;;;;;;17.83;38.93;102350.28;5025419;28;20040;-88
2021/03/17 10:31:33;;;;;;;14.40;3.15;;;;;;;18.27;36.88;102349.97;5034597;28;20108;-89
2021/03/17 10:33:59;;;;;;;14.60;3.88;;;;;;;18.60;36.58;102336.97;5034286;28;20021;-89
2021/03/17 10:36:26;;;;;;;14.60;3.42;;;;;;;18.56;36.83;102338.13;5034291;28;20103;-89
2021/03/17 10:38:52;;;;;;;18.80;3.30;;;;;;;18.77;36.22;102333.06;5021227;28;20403;-88
2021/03/17 10:41:41;;;;;;;16.60;4.00;;;;;;;18.45;34.84;102332.72;5014561;28;20034;-88
2021/03/17 10:44:14;;;;;;;13.65;2.55;;;;;;;18.78;35.71;102326.81;5013491;28;20057;-88
2021/03/17 10:47:08;;;;;;;12.48;2.75;;;;;;;18.74;34.93;102325.31;5044734;28;20025;-88
2021/03/17 10:49:36;;;;;;;10.00;2.55;;;;;;;18.42;35.49;102324.94;5030765;28;20037;-89
2021/03/17 10:52:02;;;;;;;10.38;2.63;;;;;;;18.28;35.34;102306.47;5022671;28;20503;-88
2021/03/17 10:54:40;;;;;;;14.38;2.50;;;;;;;17.66;36.65;102323.13;5038845;28;20029;-89
2021/03/17 10:57:06;;;;;;;10.02;2.15;;;;;;;18.11;35.27;102315.59;5064232;28;20341;-89
2021/03/17 10:59:34;;;;;;;14.35;2.60;;;;;;;17.97;36.03;102313.91;5042122;28;20018;-88
2021/03/17 11:02:19;;;;;;;17.73;2.95;;;;;;;17.88;36.38;102314.56;5030779;28;20069;-89
2021/03/17 11:05:09;;;;;;;10.32;1.90;;;;;;;17.74;35.71;102316.31;5014248;28;20033;-89
2021/03/17 11:07:58;;;;;;;11.90;2.40;;;;;;;17.48;36.53;102323.41;5037038;28;20065;-89
2021/03/17 11:11:02;;;;;;;12.18;2.80;;;;;;;17.08;37.20;102323.38;5014300;28;20033;-88
2021/03/17 11:13:30;;;;;;;7.78;1.83;;;;;;;17.08;36.79;102319.84;4982454;28;20030;-88
2021/03/17 11:15:58;;;;;;;14.30;2.25;;;;;;;17.19;37.14;102327.97;5034205;28;20044;-88
2021/03/17 11:18:44;;;;;;;12.23;2.92;;;;;;;17.18;37.44;102329.78;5044181;28;20033;-88
2021/03/17 11:21:17;;;;;;;12.73;2.17;;;;;;;16.56;38.02;102335.47;5033778;28;20519;-87
2021/03/17 11:23:42;;;;;;;14.75;2.72;;;;;;;16.89;37.78;102326.34;5028120;28;20480;-88
2021/03/17 11:26:18;;;;;;;15.88;3.75;;;;;;;16.76;37.39;102334.19;5026750;28;20067;-88
2021/03/17 11:28:44;;;;;;;11.88;4.07;;;;;;;16.40;38.38;102324.97;5033661;28;20029;-88
2021/03/17 11:31:11;;;;;;;18.13;4.20;;;;;;;16.84;37.48;102325.78;5018291;28;20038;-88